Terminal Aerodrome Forecast
Issued by NWS Detroit/Pontiac, MI

Home | Current Version | Previous Version | Text Only | Print | Product List | Glossary On
Versions: 1 2 3 4 5 6 7 8 9 10 11 12 13 14 15 16 17 18 19 20 21 22 23 24 25 26
000
FTUS43 KDTX 230800 AAB
TAFDTW
TAF AMD
KDTW 230829Z 2308/2412 24008KT P6SM BKN035 OVC045
     FM231000 35011KT P6SM BKN028 OVC040
     FM231200 01012KT P6SM BKN020 OVC040
     FM231600 36013KT P6SM SCT035 OVC045
     FM240100 34008KT P6SM SCT060=

USA.gov is the U.S. government's official web portal to all federal, state and local government web resources and services.